Time;durP1;ratioP1;P1;durP2;ratioP2;P2;SDS_P1;SDS_P2;PMS_P1;PMS_P2;Temp;Humidity;BMP_temperature;BMP_pressure;BME280_temperature;BME280_humidity;BME280_pressure;Samples;Min_cycle;Max_cycle;Signal;HPM_P1;HPM_P2
2023/12/11 00:02:27;;;;;;;;;;;9.20;17.50;;;;;;5019010;28;19925;-74
2023/12/11 00:05:03;;;;;;;;;;;9.20;20.10;;;;;;5027875;28;19918;-79
2023/12/11 00:08:03;;;;;;;;;;;9.20;18.50;;;;;;5026748;28;19992;-79
2023/12/11 00:11:03;;;;;;;;;;;9.20;19.90;;;;;;5014412;28;19949;-79
2023/12/11 00:13:33;;;;;;;;;;;9.20;22.30;;;;;;5013632;28;20273;-79
2023/12/11 00:16:33;;;;;;;;;;;9.30;22.70;;;;;;5016409;28;19941;-79
2023/12/11 00:19:33;;;;;;;;;;;9.40;22.00;;;;;;5015875;28;19917;-79
2023/12/11 00:31:07;;;;;;;;;;;9.40;20.30;;;;;;5009039;28;19960;-79
2023/12/11 00:33:34;;;;;;;;;;;9.50;20.30;;;;;;5025235;28;19917;-74
2023/12/11 00:35:59;;;;;;;;;;;9.60;18.80;;;;;;5024412;28;19921;-74
2023/12/11 00:38:25;;;;;;;;;;;9.60;16.10;;;;;;5015184;28;19909;-74
2023/12/11 00:40:51;;;;;;;;;;;9.70;15.10;;;;;;5022942;28;19963;-73
2023/12/11 00:43:21;;;;;;;;;;;9.70;15.30;;;;;;4996469;28;20025;-74
2023/12/11 00:46:09;;;;;;;;;;;9.60;15.40;;;;;;5014984;28;19949;-74
2023/12/11 00:48:35;;;;;;;;;;;9.60;18.00;;;;;;5014310;28;19966;-74
2023/12/11 00:51:03;;;;;;;;;;;9.60;17.30;;;;;;5021865;28;19909;-74
2023/12/11 00:53:33;;;;;;;;;;;9.70;16.70;;;;;;5019639;28;19914;-73
2023/12/11 00:56:03;;;;;;;;;;;9.60;15.10;;;;;;5015893;28;19913;-74
2023/12/11 00:58:33;;;;;;;;;;;9.50;16.70;;;;;;5014879;28;20020;-74
2023/12/11 01:01:03;;;;;;;;;;;9.50;19.10;;;;;;5013749;28;19909;-74
2023/12/11 01:03:34;;;;;;;;;;;9.40;20.60;;;;;;5016856;28;19913;-78
2023/12/11 01:06:33;;;;;;;;;;;9.40;19.30;;;;;;5024467;28;19952;-79
2023/12/11 01:09:17;;;;;;;;;;;9.20;19.10;;;;;;5004401;28;19952;-79
2023/12/11 01:11:51;;;;;;;;;;;9.20;19.50;;;;;;5014524;28;19924;-79
2023/12/11 01:14:33;;;;;;;;;;;9.10;22.80;;;;;;5013684;28;19936;-80
2023/12/11 01:20:03;;;;;;;;;;;9.00;38.80;;;;;;4994979;28;19921;-79
2023/12/11 01:22:33;;;;;;;;;;;9.10;38.90;;;;;;5008249;28;19909;-79
2023/12/11 01:25:33;;;;;;;;;;;9.10;38.90;;;;;;5014264;28;19917;-80
2023/12/11 01:28:33;;;;;;;;;;;9.10;38.90;;;;;;5013844;28;19959;-80
2023/12/11 01:31:33;;;;;;;;;;;9.10;38.90;;;;;;5014326;28;19956;-80
2023/12/11 01:33:59;;;;;;;;;;;9.20;39.00;;;;;;5014535;28;19917;-74
2023/12/11 01:36:24;;;;;;;;;;;9.20;39.00;;;;;;5026287;28;19921;-74
2023/12/11 01:38:51;;;;;;;;;;;9.30;39.00;;;;;;5021498;28;19991;-74
2023/12/11 01:44:20;;;;;;;;;;;9.30;39.00;;;;;;5014420;28;19920;-73
2023/12/11 01:46:46;;;;;;;;;;;9.30;42.10;;;;;;5019752;28;19999;-74
2023/12/11 01:49:33;;;;;;;;;;;9.30;39.00;;;;;;5020063;28;19921;-79
2023/12/11 01:52:04;;;;;;;;;;;9.30;39.00;;;;;;5014188;28;19925;-79
2023/12/11 01:54:34;;;;;;;;;;;9.30;39.00;;;;;;5017718;28;19992;-80
2023/12/11 01:57:00;;;;;;;;;;;9.30;39.00;;;;;;5018164;28;20262;-80
2023/12/11 01:59:34;;;;;;;;;;;9.40;39.10;;;;;;5014131;28;19920;-80
2023/12/11 02:02:35;;;;;;;;;;;9.40;39.10;;;;;;5017553;28;20000;-80
2023/12/11 02:05:03;;;;;;;;;;;9.50;38.50;;;;;;5016630;28;20439;-79
2023/12/11 02:07:33;;;;;;;;;;;9.60;32.20;;;;;;5029149;28;19909;-80
2023/12/11 02:10:04;;;;;;;;;;;9.60;23.90;;;;;;5013865;28;20008;-80
2023/12/11 02:13:03;;;;;;;;;;;9.60;23.40;;;;;;5016417;28;19917;-80
2023/12/11 02:18:33;;;;;;;;;;;9.50;17.10;;;;;;5017379;28;19924;-80
2023/12/11 02:20:59;;;;;;;;;;;9.50;15.10;;;;;;5018196;28;19941;-74
2023/12/11 02:23:51;;;;;;;;;;;9.40;15.10;;;;;;5036256;28;19920;-74
2023/12/11 02:26:18;;;;;;;;;;;9.40;14.00;;;;;;5025564;28;19952;-75
2023/12/11 02:28:43;;;;;;;;;;;9.40;14.20;;;;;;5017667;28;19964;-74
2023/12/11 02:31:21;;;;;;;;;;;9.40;14.40;;;;;;5029457;28;19913;-74
2023/12/11 02:33:47;;;;;;;;;;;9.40;16.40;;;;;;5017546;28;20396;-74
2023/12/11 02:36:33;;;;;;;;;;;9.50;17.10;;;;;;5017882;28;19913;-80
2023/12/11 02:39:03;;;;;;;;;;;9.30;17.20;;;;;;5018751;28;20009;-80
2023/12/11 02:41:51;;;;;;;;;;;9.30;18.50;;;;;;5009882;28;20324;-80
2023/12/11 02:47:33;;;;;;;;;;;9.10;17.60;;;;;;5029604;28;19936;-80
2023/12/11 02:50:33;;;;;;;;;;;9.00;18.30;;;;;;5017247;28;19918;-79
2023/12/11 02:53:04;;;;;;;;;;;8.80;18.70;;;;;;5016761;28;19910;-80
2023/12/11 02:55:33;;;;;;;;;;;8.80;18.10;;;;;;5017367;28;20274;-80
2023/12/11 02:58:33;;;;;;;;;;;8.80;21.20;;;;;;5016426;28;19913;-80
2023/12/11 03:01:04;;;;;;;;;;;8.60;19.70;;;;;;5016819;28;19914;-80
2023/12/11 03:03:33;;;;;;;;;;;8.50;23.60;;;;;;5024426;28;19941;-80
2023/12/11 03:06:03;;;;;;;;;;;8.50;27.30;;;;;;5017258;28;19909;-74
2023/12/11 03:08:34;;;;;;;;;;;8.50;29.60;;;;;;5017035;28;20357;-74
2023/12/11 03:11:03;;;;;;;;;;;8.30;30.10;;;;;;5014957;28;20320;-74
2023/12/11 03:13:29;;;;;;;;;;;8.20;38.10;;;;;;5016199;28;19921;-74
2023/12/11 03:16:03;;;;;;;;;;;8.20;38.10;;;;;;5024119;28;19913;-74
2023/12/11 03:18:29;;;;;;;;;;;8.10;38.00;;;;;;5016264;28;19909;-74
2023/12/11 03:21:03;;;;;;;;;;;8.00;41.10;;;;;;5016641;28;19961;-79
2023/12/11 03:23:33;;;;;;;;;;;8.00;38.00;;;;;;5019360;28;19913;-80
2023/12/11 03:26:03;;;;;;;;;;;8.00;38.00;;;;;;5019581;28;20369;-80
2023/12/11 03:28:33;;;;;;;;;;;8.00;38.00;;;;;;5020214;28;19953;-80
2023/12/11 03:31:03;;;;;;;;;;;8.00;38.00;;;;;;5016157;28;19909;-80
2023/12/11 03:33:45;;;;;;;;;;;8.00;38.00;;;;;;5016549;28;19913;-80
2023/12/11 03:36:15;;;;;;;;;;;8.20;38.10;;;;;;5016357;28;19960;-74
2023/12/11 03:38:41;;;;;;;;;;;8.20;38.10;;;;;;5015728;28;19960;-74
2023/12/11 03:41:09;;;;;;;;;;;8.30;38.20;;;;;;5016571;28;19956;-74
2023/12/11 03:43:35;;;;;;;;;;;8.40;38.30;;;;;;5017050;28;19909;-74
2023/12/11 03:46:03;;;;;;;;;;;8.40;38.30;;;;;;5020510;28;19917;-74
2023/12/11 03:48:28;;;;;;;;;;;8.50;38.40;;;;;;5027404;28;20357;-74
2023/12/11 03:50:54;;;;;;;;;;;8.50;38.40;;;;;;5020688;28;19968;-80
2023/12/11 03:53:20;;;;;;;;;;;8.60;38.50;;;;;;5016291;28;19972;-80
2023/12/11 03:58:51;;;;;;;;;;;8.60;41.80;;;;;;5028718;28;19932;-80
2023/12/11 04:07:45;;;;;;;;;;;8.80;38.60;;;;;;5035655;28;20375;-80
2023/12/11 04:19:20;;;;;;;;;;;9.10;38.90;;;;;;5019539;28;20327;-80
2023/12/11 04:21:52;;;;;;;;;;;9.10;38.80;;;;;;5021879;28;19913;-74
2023/12/11 04:24:21;;;;;;;;;;;9.10;32.20;;;;;;5015391;28;19945;-74
2023/12/11 04:26:47;;;;;;;;;;;9.20;28.30;;;;;;5020459;28;19913;-74
2023/12/11 04:29:13;;;;;;;;;;;9.20;28.10;;;;;;5018133;28;19920;-74
2023/12/11 04:31:38;;;;;;;;;;;9.30;27.20;;;;;;5022980;28;19916;-74
2023/12/11 04:34:04;;;;;;;;;;;9.30;24.80;;;;;;5033849;28;19913;-74
2023/12/11 04:36:46;;;;;;;;;;;9.30;24.90;;;;;;5025522;28;19914;-80
2023/12/11 04:39:27;;;;;;;;;;;9.40;23.20;;;;;;5015265;28;19909;-80
2023/12/11 04:44:56;;;;;;;;;;;9.30;20.60;;;;;;5006458;28;19932;-80
2023/12/11 04:50:27;;;;;;;;;;;9.30;17.40;;;;;;5034366;28;20431;-80
2023/12/11 04:52:57;;;;;;;;;;;9.40;16.90;;;;;;5035085;28;19959;-74
2023/12/11 04:55:23;;;;;;;;;;;9.40;17.20;;;;;;5034063;28;19920;-74
2023/12/11 04:58:03;;;;;;;;;;;9.40;14.10;;;;;;5034637;28;19992;-74
2023/12/11 05:00:39;;;;;;;;;;;9.40;12.70;;;;;;5019751;28;19913;-77
2023/12/11 05:03:05;;;;;;;;;;;9.50;10.40;;;;;;5021117;28;19914;-75
2023/12/11 05:11:45;;;;;;;;;;;9.50;4.90;;;;;;5015423;28;20423;-79
2023/12/11 05:17:51;;;;;;;;;;;9.60;3.90;;;;;;4998869;28;20412;-79
2023/12/11 05:26:23;;;;;;;;;;;9.60;1.00;;;;;;4994731;28;19963;-79
2023/12/11 05:37:57;;;;;;;;;;;9.30;3.00;;;;;;4997419;28;19929;-78
2023/12/11 05:43:26;;;;;;;;;;;9.30;6.00;;;;;;4988705;28;19968;-79
2023/12/11 05:48:55;;;;;;;;;;;9.30;9.80;;;;;;5015467;28;19983;-80
2023/12/11 05:51:23;;;;;;;;;;;9.40;10.00;;;;;;4998232;28;20195;-73
2023/12/11 05:54:04;;;;;;;;;;;9.40;9.40;;;;;;4998777;28;20305;-79
2023/12/11 05:59:39;;;;;;;;;;;9.50;5.20;;;;;;5007708;28;20308;-74
2023/12/11 06:02:16;;;;;;;;;;;9.50;5.90;;;;;;4992706;28;19914;-77
2023/12/11 06:13:57;;;;;;;;;;;9.20;4.40;;;;;;5011327;28;19971;-81
2023/12/11 06:19:26;;;;;;;;;;;9.10;7.00;;;;;;5011809;28;19920;-81
2023/12/11 06:21:58;;;;;;;;;;;9.10;9.00;;;;;;4980961;28;19914;-76
2023/12/11 06:24:23;;;;;;;;;;;8.90;10.00;;;;;;5003774;28;19920;-75
2023/12/11 06:27:04;;;;;;;;;;;8.90;10.60;;;;;;5015001;28;20022;-75
2023/12/11 06:29:34;;;;;;;;;;;8.80;10.20;;;;;;5010956;28;20272;-75
2023/12/11 06:31:59;;;;;;;;;;;8.80;8.70;;;;;;5003304;28;20361;-75
2023/12/11 06:34:28;;;;;;;;;;;8.80;8.90;;;;;;4998494;28;19918;-75
2023/12/11 06:37:04;;;;;;;;;;;8.80;15.10;;;;;;4998097;28;19914;-78
2023/12/11 06:43:03;;;;;;;;;;;8.90;17.10;;;;;;4990691;28;19945;-78
2023/12/11 06:48:32;;;;;;;;;;;8.90;17.30;;;;;;4992591;28;19928;-83
2023/12/11 06:51:00;;;;;;;;;;;;;;;;;;5000938;28;20286;-81
2023/12/11 06:53:26;;;;;;;;;;;9.00;18.10;;;;;;4976135;28;19926;-75
2023/12/11 06:58:57;;;;;;;;;;;;;;;;;;4995394;28;20009;-75
2023/12/11 07:01:40;;;;;;;;;;;9.10;20.50;;;;;;5002697;28;19961;-75
2023/12/11 07:04:09;;;;;;;;;;;9.10;18.60;;;;;;4988471;28;20001;-75
2023/12/11 07:09:39;;;;;;;;;;;9.10;12.60;;;;;;4994446;28;20380;-81
2023/12/11 07:12:15;;;;;;;;;;;;;;;;;;5016254;28;19913;-80
2023/12/11 07:17:44;;;;;;;;;;;8.80;16.30;;;;;;4991084;28;19961;-77
2023/12/11 07:20:11;;;;;;;;;;;8.70;19.50;;;;;;4997885;28;19914;-77
2023/12/11 07:22:37;;;;;;;;;;;8.70;22.90;;;;;;5000491;28;19910;-71
2023/12/11 07:25:04;;;;;;;;;;;8.70;28.70;;;;;;4996016;28;19914;-71
2023/12/11 07:27:30;;;;;;;;;;;8.80;38.60;;;;;;4993894;28;19920;-71
2023/12/11 07:29:55;;;;;;;;;;;8.80;38.60;;;;;;4995832;28;19909;-71
2023/12/11 07:32:22;;;;;;;;;;;;;;;;;;5001145;28;19913;-71
2023/12/11 07:34:47;;;;;;;;;;;8.90;38.70;;;;;;4995482;28;20255;-71
2023/12/11 07:37:13;;;;;;;;;;;9.00;38.10;;;;;;4996215;28;19957;-76
2023/12/11 07:39:40;;;;;;;;;;;8.90;30.50;;;;;;4996311;28;19909;-77
2023/12/11 07:45:08;;;;;;;;;;;8.90;29.80;;;;;;4998689;28;20293;-76
2023/12/11 07:48:11;;;;;;;;;;;8.90;27.80;;;;;;4996039;28;19910;-77
2023/12/11 07:50:52;;;;;;;;;;;8.90;28.40;;;;;;4996204;28;19932;-76
2023/12/11 07:59:23;;;;;;;;;;;8.80;23.80;;;;;;4994854;28;19976;-78
2023/12/11 08:05:27;;;;;;;;;;;8.80;22.70;;;;;;4994726;28;20463;-76
2023/12/11 08:07:53;;;;;;;;;;;8.80;26.50;;;;;;4995661;28;19910;-76
2023/12/11 08:10:34;;;;;;;;;;;8.80;24.30;;;;;;4994834;28;19920;-76
2023/12/11 08:13:04;;;;;;;;;;;8.80;21.30;;;;;;4991377;28;20432;-76
2023/12/11 08:15:29;;;;;;;;;;;8.80;20.00;;;;;;4994250;28;19960;-77
2023/12/11 08:17:55;;;;;;;;;;;8.90;17.70;;;;;;4994302;28;19913;-76
2023/12/11 08:20:45;;;;;;;;;;;8.90;13.80;;;;;;4995142;28;19910;-76
2023/12/11 08:26:36;;;;;;;;;;;9.00;8.90;;;;;;4995509;28;20281;-76
2023/12/11 08:29:17;;;;;;;;;;;9.10;7.80;;;;;;4985824;28;19945;-76
2023/12/11 08:31:43;;;;;;;;;;;9.30;4.60;;;;;;5000196;28;19917;-78
2023/12/11 08:34:45;;;;;;;;;;;9.50;1.10;;;;;;5000940;28;20392;-76
2023/12/11 08:37:27;;;;;;;;;;;9.70;1.00;;;;;;4988619;28;20272;-76
2023/12/11 08:40:28;;;;;;;;;;;9.90;1.00;;;;;;4995660;28;19952;-76
2023/12/11 08:42:54;;;;;;;;;;;10.00;1.00;;;;;;4994501;28;19921;-77
2023/12/11 08:48:25;;;;;;;;;;;10.30;1.00;;;;;;4997711;28;20393;-77
2023/12/11 08:51:15;;;;;;;;;;;10.30;1.00;;;;;;4994866;28;20378;-77
2023/12/11 08:57:09;;;;;;;;;;;10.30;1.00;;;;;;4994314;28;19920;-77
2023/12/11 09:02:38;;;;;;;;;;;10.30;1.00;;;;;;4992443;28;20024;-77
2023/12/11 09:05:04;;;;;;;;;;;10.40;1.00;;;;;;4984294;28;20396;-76
2023/12/11 09:07:46;;;;;;;;;;;10.40;1.00;;;;;;4989828;28;19913;-77
2023/12/11 09:10:12;;;;;;;;;;;;;;;;;;4995194;28;19969;-71
2023/12/11 09:12:38;;;;;;;;;;;10.40;1.00;;;;;;4996653;28;20284;-71
2023/12/11 09:15:04;;;;;;;;;;;10.50;1.00;;;;;;4994025;28;19913;-71
2023/12/11 09:18:04;;;;;;;;;;;10.50;1.00;;;;;;4981181;28;20009;-76
2023/12/11 09:23:38;;;;;;;;;;;;;;;;;;4994225;28;20014;-71
2023/12/11 09:26:04;;;;;;;;;;;10.60;1.00;;;;;;4990830;28;20052;-75
2023/12/11 09:28:34;;;;;;;;;;;10.50;1.00;;;;;;4998549;28;19976;-75
2023/12/11 09:30:59;;;;;;;;;;;10.50;1.00;;;;;;4980934;28;19917;-75
2023/12/11 09:33:25;;;;;;;;;;;10.50;1.00;;;;;;4998485;28;19914;-73
2023/12/11 09:35:51;;;;;;;;;;;10.60;1.00;;;;;;4994700;28;20297;-75
2023/12/11 09:38:28;;;;;;;;;;;10.60;1.00;;;;;;4994794;28;19936;-74
2023/12/11 09:40:53;;;;;;;;;;;10.80;1.00;;;;;;4994505;28;19917;-75
2023/12/11 09:49:28;;;;;;;;;;;10.80;1.00;;;;;;4983819;28;19960;-75
2023/12/11 09:52:15;;;;;;;;;;;10.80;1.00;;;;;;4984961;28;19996;-75
2023/12/11 09:55:03;;;;;;;;;;;10.80;1.00;;;;;;4992234;28;19985;-80
2023/12/11 09:58:04;;;;;;;;;;;10.80;1.00;;;;;;4997400;28;19968;-80
2023/12/11 10:00:52;;;;;;;;;;;10.90;1.00;;;;;;5014163;28;19944;-81
2023/12/11 10:06:20;;;;;;;;;;;11.10;1.00;;;;;;4993924;28;19920;-80
2023/12/11 10:08:52;;;;;;;;;;;11.30;1.00;;;;;;4993818;28;20008;-81
2023/12/11 10:14:21;;;;;;;;;;;11.70;1.00;;;;;;4994346;28;19925;-80
2023/12/11 10:19:50;;;;;;;;;;;12.10;1.00;;;;;;4993892;28;19917;-80
2023/12/11 10:22:29;;;;;;;;;;;12.20;1.00;;;;;;4993608;28;19914;-80
2023/12/11 10:28:05;;;;;;;;;;;12.30;1.00;;;;;;4991781;28;19921;-80
2023/12/11 10:30:47;;;;;;;;;;;12.40;1.00;;;;;;5005527;28;19913;-80
2023/12/11 10:36:22;;;;;;;;;;;12.50;1.00;;;;;;4997818;28;20317;-80
2023/12/11 10:39:21;;;;;;;;;;;12.40;1.00;;;;;;4985899;28;19921;-79
2023/12/11 10:42:17;;;;;;;;;;;12.30;1.00;;;;;;4976137;28;20358;-80
2023/12/11 10:45:16;;;;;;;;;;;12.40;1.00;;;;;;4992122;28;19989;-80
2023/12/11 10:50:46;;;;;;;;;;;12.60;1.00;;;;;;4970489;28;20396;-80
2023/12/11 10:56:14;;;;;;;;;;;12.70;1.00;;;;;;4979538;28;19918;-75
2023/12/11 10:58:40;;;;;;;;;;;12.70;1.00;;;;;;4979819;28;19910;-75
2023/12/11 11:01:16;;;;;;;;;;;12.80;1.00;;;;;;4975160;28;19910;-75
2023/12/11 11:03:52;;;;;;;;;;;12.90;1.00;;;;;;4963495;28;19961;-75
2023/12/11 11:06:46;;;;;;;;;;;12.90;1.00;;;;;;4975615;28;19960;-75
2023/12/11 11:09:21;;;;;;;;;;;12.90;1.00;;;;;;4977769;28;19942;-76
2023/12/11 11:11:56;;;;;;;;;;;13.10;1.00;;;;;;4975690;28;19919;-75
2023/12/11 11:14:27;;;;;;;;;;;13.00;1.00;;;;;;4977127;28;19965;-75
2023/12/11 11:17:22;;;;;;;;;;;13.00;1.00;;;;;;4975110;28;19918;-75
2023/12/11 11:20:07;;;;;;;;;;;13.00;1.00;;;;;;4998955;28;19917;-75
2023/12/11 11:22:34;;;;;;;;;;;13.10;1.00;;;;;;4996102;28;19949;-75
2023/12/11 11:25:22;;;;;;;;;;;13.10;1.00;;;;;;4995566;28;19917;-75
2023/12/11 11:28:04;;;;;;;;;;;13.10;1.00;;;;;;4990047;28;19958;-75
2023/12/11 11:30:42;;;;;;;;;;;13.10;1.00;;;;;;4985329;28;19910;-75
2023/12/11 11:33:10;;;;;;;;;;;13.20;1.00;;;;;;4994447;28;19914;-75
2023/12/11 11:35:55;;;;;;;;;;;13.30;1.00;;;;;;4996474;28;19968;-75
2023/12/11 11:38:40;;;;;;;;;;;13.40;1.00;;;;;;4999000;28;19913;-75
2023/12/11 11:41:19;;;;;;;;;;;13.30;1.00;;;;;;4989180;28;19965;-74
2023/12/11 11:44:04;;;;;;;;;;;13.30;1.00;;;;;;4993203;28;19965;-74
2023/12/11 11:46:55;;;;;;;;;;;13.20;1.00;;;;;;4985017;28;20282;-75
2023/12/11 11:49:40;;;;;;;;;;;13.10;1.00;;;;;;4979087;28;19928;-75
2023/12/11 11:52:07;;;;;;;;;;;13.10;1.00;;;;;;4982661;28;19925;-75
2023/12/11 11:58:04;;;;;;;;;;;13.10;1.00;;;;;;4995234;28;19973;-80
2023/12/11 12:06:40;;;;;;;;;;;13.00;1.00;;;;;;4993371;28;20332;-78
2023/12/11 12:09:18;;;;;;;;;;;13.10;1.00;;;;;;4994912;28;19914;-79
2023/12/11 12:11:44;;;;;;;;;;;13.10;1.00;;;;;;4983598;28;19922;-75
2023/12/11 12:14:16;;;;;;;;;;;13.00;1.00;;;;;;4999248;28;19914;-75
2023/12/11 12:16:41;;;;;;;;;;;13.00;1.00;;;;;;5001315;28;20313;-74
2023/12/11 12:19:10;;;;;;;;;;;13.00;1.00;;;;;;4992190;28;19914;-74
2023/12/11 12:21:48;;;;;;;;;;;13.00;1.00;;;;;;4986220;28;20325;-74
2023/12/11 12:24:22;;;;;;;;;;;12.90;1.00;;;;;;4991058;28;19914;-74
2023/12/11 12:29:51;;;;;;;;;;;13.00;1.00;;;;;;4995334;28;19916;-79
2023/12/11 12:32:28;;;;;;;;;;;13.00;1.00;;;;;;4993316;28;20008;-78
2023/12/11 12:35:04;;;;;;;;;;;13.00;1.00;;;;;;4995090;28;19922;-78
2023/12/11 12:37:52;;;;;;;;;;;13.00;1.00;;;;;;4996961;28;19916;-78
2023/12/11 12:40:18;;;;;;;;;;;;;;;;;;4996395;28;20416;-78
2023/12/11 12:42:43;;;;;;;;;;;12.90;1.00;;;;;;4989662;28;19958;-78
2023/12/11 12:45:09;;;;;;;;;;;12.90;1.00;;;;;;4995926;28;19920;-78
2023/12/11 12:47:35;;;;;;;;;;;;;;;;;;4985983;28;20065;-74
2023/12/11 12:50:06;;;;;;;;;;;12.90;1.00;;;;;;4990779;28;19921;-74
2023/12/11 12:52:36;;;;;;;;;;;12.90;1.00;;;;;;4984278;28;20041;-75
2023/12/11 12:55:28;;;;;;;;;;;12.90;1.00;;;;;;4986377;28;19917;-78
2023/12/11 13:00:57;;;;;;;;;;;12.90;1.00;;;;;;4994253;28;19917;-78
2023/12/11 13:03:34;;;;;;;;;;;;;;;;;;4993656;28;19918;-78
2023/12/11 13:06:34;;;;;;;;;;;12.90;1.00;;;;;;4992040;28;20080;-78
2023/12/11 13:09:10;;;;;;;;;;;12.90;1.00;;;;;;4984373;28;19910;-78
2023/12/11 13:12:04;;;;;;;;;;;12.80;1.00;;;;;;4995047;28;19913;-78
2023/12/11 13:17:40;;;;;;;;;;;12.70;1.00;;;;;;4993033;28;19952;-78
2023/12/11 13:23:10;;;;;;;;;;;12.70;1.00;;;;;;4988834;28;19961;-78
2023/12/11 13:25:46;;;;;;;;;;;12.70;1.00;;;;;;4987935;28;20322;-79
2023/12/11 13:28:34;;;;;;;;;;;12.80;1.00;;;;;;4994289;28;19910;-78
2023/12/11 13:31:04;;;;;;;;;;;12.80;1.00;;;;;;4987870;28;20274;-78
2023/12/11 13:33:30;;;;;;;;;;;12.80;1.00;;;;;;4976848;28;19909;-79
2023/12/11 13:36:13;;;;;;;;;;;12.80;1.00;;;;;;4994113;28;20774;-78
2023/12/11 13:38:52;;;;;;;;;;;12.70;1.00;;;;;;4995264;28;19914;-78
2023/12/11 13:44:16;;;;;;;;;;;12.70;1.00;;;;;;4993762;28;19937;-78
2023/12/11 13:46:41;;;;;;;;;;;12.80;1.00;;;;;;4992511;28;19910;-78
2023/12/11 13:49:07;;;;;;;;;;;12.80;1.00;;;;;;4993101;28;19980;-79
2023/12/11 13:51:33;;;;;;;;;;;12.80;1.00;;;;;;4992348;28;19984;-78
2023/12/11 13:57:22;;;;;;;;;;;12.70;1.00;;;;;;4993805;28;19916;-78
2023/12/11 14:00:04;;;;;;;;;;;12.70;1.00;;;;;;4993993;28;19916;-78
2023/12/11 14:02:52;;;;;;;;;;;12.70;1.00;;;;;;4987515;28;19914;-78
2023/12/11 14:05:22;;;;;;;;;;;12.70;1.00;;;;;;5000543;28;19914;-74
2023/12/11 14:07:59;;;;;;;;;;;12.60;1.00;;;;;;5006013;28;19979;-75
2023/12/11 14:10:28;;;;;;;;;;;12.60;1.00;;;;;;4999183;28;19949;-75
2023/12/11 14:12:53;;;;;;;;;;;12.70;1.00;;;;;;5000002;28;19925;-73
2023/12/11 14:15:20;;;;;;;;;;;12.70;1.00;;;;;;4996777;28;20384;-73
2023/12/11 14:17:46;;;;;;;;;;;12.60;1.00;;;;;;5007310;28;19918;-74
2023/12/11 14:20:12;;;;;;;;;;;12.60;1.00;;;;;;4994997;28;20402;-74
2023/12/11 14:22:40;;;;;;;;;;;12.60;1.00;;;;;;4989222;28;19914;-73
2023/12/11 14:25:06;;;;;;;;;;;12.60;1.00;;;;;;4998229;28;19914;-73
2023/12/11 14:30:35;;;;;;;;;;;12.40;1.00;;;;;;4996882;28;20380;-77
2023/12/11 14:33:16;;;;;;;;;;;12.40;1.00;;;;;;4997201;28;20001;-76
2023/12/11 14:35:58;;;;;;;;;;;12.40;1.00;;;;;;4988367;28;20282;-77
2023/12/11 14:38:40;;;;;;;;;;;12.30;1.00;;;;;;5001581;28;19972;-76
2023/12/11 14:41:16;;;;;;;;;;;;;;;;;;4990427;28;19937;-75
2023/12/11 14:43:41;;;;;;;;;;;12.30;1.00;;;;;;5006116;28;19920;-78
2023/12/11 14:46:07;;;;;;;;;;;12.30;1.00;;;;;;5002142;28;19910;-73
2023/12/11 14:48:35;;;;;;;;;;;12.30;1.00;;;;;;4999062;28;20288;-74
2023/12/11 14:51:00;;;;;;;;;;;12.20;1.00;;;;;;4997139;28;19918;-74
2023/12/11 14:53:26;;;;;;;;;;;12.30;1.00;;;;;;4989424;28;19924;-74
2023/12/11 14:55:52;;;;;;;;;;;;;;;;;;4998553;28;19972;-74
2023/12/11 14:58:22;;;;;;;;;;;12.30;1.00;;;;;;5000076;28;19917;-77
2023/12/11 15:00:48;;;;;;;;;;;12.30;1.00;;;;;;5004168;28;20286;-77
2023/12/11 15:03:28;;;;;;;;;;;12.30;1.00;;;;;;4992919;28;19914;-78
2023/12/11 15:08:58;;;;;;;;;;;12.20;1.00;;;;;;4996724;28;20013;-78
2023/12/11 15:11:30;;;;;;;;;;;12.20;1.00;;;;;;4978504;28;19914;-74
2023/12/11 15:13:56;;;;;;;;;;;12.20;1.00;;;;;;4990832;28;19922;-77
2023/12/11 15:16:28;;;;;;;;;;;12.10;1.00;;;;;;4993787;28;19965;-78
2023/12/11 15:18:59;;;;;;;;;;;12.10;1.00;;;;;;4998289;28;19918;-79
2023/12/11 15:21:24;;;;;;;;;;;12.10;1.00;;;;;;4995709;28;19914;-77
2023/12/11 15:33:22;;;;;;;;;;;11.90;1.00;;;;;;4995209;28;19921;-83
2023/12/11 15:35:47;;;;;;;;;;;11.90;1.00;;;;;;4987839;28;19922;-73
2023/12/11 15:38:34;;;;;;;;;;;11.90;1.00;;;;;;4996792;28;19924;-74
2023/12/11 15:41:00;;;;;;;;;;;11.80;1.00;;;;;;4994814;28;20004;-74
2023/12/11 15:43:26;;;;;;;;;;;11.80;1.00;;;;;;4999410;28;19913;-75
2023/12/11 15:46:07;;;;;;;;;;;11.80;1.00;;;;;;4996576;28;19910;-74
2023/12/11 15:48:58;;;;;;;;;;;11.80;1.00;;;;;;5010102;28;20305;-80
2023/12/11 15:51:29;;;;;;;;;;;11.70;1.00;;;;;;4996090;28;19944;-73
2023/12/11 15:53:55;;;;;;;;;;;11.70;1.00;;;;;;4985337;28;19933;-73
2023/12/11 15:56:20;;;;;;;;;;;11.60;1.00;;;;;;4998122;28;19937;-74
2023/12/11 15:59:16;;;;;;;;;;;11.70;1.00;;;;;;5002368;28;19984;-78
2023/12/11 16:01:42;;;;;;;;;;;11.70;1.00;;;;;;4996388;28;19909;-76
2023/12/11 16:04:16;;;;;;;;;;;11.70;1.00;;;;;;4989170;28;20362;-77
2023/12/11 16:09:58;;;;;;;;;;;11.60;1.00;;;;;;4995771;28;19964;-77
2023/12/11 16:15:29;;;;;;;;;;;11.50;1.00;;;;;;4977743;28;20393;-81
2023/12/11 16:17:55;;;;;;;;;;;11.40;1.00;;;;;;4969098;28;20373;-78
2023/12/11 16:20:28;;;;;;;;;;;11.50;1.00;;;;;;4994454;28;20002;-77
2023/12/11 16:23:04;;;;;;;;;;;11.40;1.00;;;;;;4988395;28;19918;-76
2023/12/11 16:25:34;;;;;;;;;;;11.40;1.00;;;;;;4985588;28;19918;-76
2023/12/11 16:31:04;;;;;;;;;;;11.40;1.00;;;;;;4994478;28;20019;-77
2023/12/11 16:34:04;;;;;;;;;;;11.30;1.00;;;;;;5005808;28;19913;-76
2023/12/11 16:36:40;;;;;;;;;;;11.40;1.00;;;;;;4995790;28;20006;-77
2023/12/11 16:39:28;;;;;;;;;;;11.40;1.00;;;;;;4995543;28;20001;-77
2023/12/11 16:42:23;;;;;;;;;;;11.40;1.00;;;;;;4994765;28;19946;-76
2023/12/11 16:44:52;;;;;;;;;;;11.50;1.00;;;;;;5007233;28;20357;-77
2023/12/11 16:47:22;;;;;;;;;;;11.40;1.00;;;;;;4976966;28;19964;-75
2023/12/11 16:49:48;;;;;;;;;;;11.40;1.00;;;;;;4995223;28;20262;-75
2023/12/11 16:52:13;;;;;;;;;;;11.40;1.00;;;;;;4995293;28;20012;-75
2023/12/11 16:54:41;;;;;;;;;;;11.50;1.00;;;;;;4980458;28;19917;-75
2023/12/11 16:57:16;;;;;;;;;;;11.50;1.00;;;;;;4993356;28;20004;-76
2023/12/11 16:59:41;;;;;;;;;;;11.40;1.00;;;;;;4994837;28;20345;-75
2023/12/11 17:02:10;;;;;;;;;;;11.40;1.00;;;;;;5016558;28;20009;-75
2023/12/11 17:04:35;;;;;;;;;;;11.40;1.00;;;;;;4980637;28;19913;-75
2023/12/11 17:07:02;;;;;;;;;;;11.40;1.00;;;;;;4992343;28;19910;-75
2023/12/11 17:09:28;;;;;;;;;;;11.40;1.00;;;;;;4992207;28;19921;-74
2023/12/11 17:11:53;;;;;;;;;;;11.40;1.00;;;;;;4999400;28;19929;-74
2023/12/11 17:14:22;;;;;;;;;;;11.40;1.00;;;;;;4995194;28;20381;-75
2023/12/11 17:16:52;;;;;;;;;;;11.30;1.00;;;;;;4994631;28;19917;-75
2023/12/11 17:19:17;;;;;;;;;;;11.40;1.00;;;;;;4994186;28;19913;-75
2023/12/11 17:21:52;;;;;;;;;;;11.40;1.00;;;;;;4991561;28;19940;-75
2023/12/11 17:24:28;;;;;;;;;;;11.40;1.00;;;;;;5001396;28;19914;-76
2023/12/11 17:27:05;;;;;;;;;;;11.30;1.00;;;;;;4994736;28;19925;-76
2023/12/11 17:29:40;;;;;;;;;;;11.10;1.00;;;;;;5001307;28;19914;-75
2023/12/11 17:32:16;;;;;;;;;;;10.90;1.00;;;;;;4989170;28;19914;-74
2023/12/11 17:34:58;;;;;;;;;;;10.90;1.00;;;;;;4984525;28;19913;-75
2023/12/11 17:37:28;;;;;;;;;;;10.90;1.00;;;;;;4993629;28;19918;-74
2023/12/11 17:40:06;;;;;;;;;;;10.90;1.00;;;;;;4993250;28;19925;-75
2023/12/11 17:42:34;;;;;;;;;;;10.80;1.00;;;;;;4992909;28;19913;-74
2023/12/11 17:48:16;;;;;;;;;;;10.80;1.00;;;;;;4994514;28;20041;-75
2023/12/11 17:53:46;;;;;;;;;;;10.80;1.00;;;;;;4994415;28;20048;-79
2023/12/11 17:56:22;;;;;;;;;;;10.80;1.00;;;;;;4993495;28;19921;-77
2023/12/11 17:59:04;;;;;;;;;;;10.70;1.00;;;;;;4995214;28;19945;-77
2023/12/11 18:01:29;;;;;;;;;;;10.70;1.00;;;;;;4994255;28;19953;-76
2023/12/11 18:03:55;;;;;;;;;;;10.70;1.00;;;;;;4985018;28;19978;-74
2023/12/11 18:06:28;;;;;;;;;;;10.70;1.00;;;;;;4997107;28;19914;-74
2023/12/11 18:08:58;;;;;;;;;;;;;;;;;;5000091;28;19917;-75
2023/12/11 18:11:28;;;;;;;;;;;10.60;1.00;;;;;;4988649;28;20001;-74
2023/12/11 18:13:58;;;;;;;;;;;10.60;1.00;;;;;;4990493;28;19921;-78
2023/12/11 18:16:40;;;;;;;;;;;10.50;1.00;;;;;;4992690;28;19917;-78
2023/12/11 18:22:10;;;;;;;;;;;10.50;1.00;;;;;;4997456;28;19960;-84
2023/12/11 18:24:46;;;;;;;;;;;10.40;1.00;;;;;;5000191;28;19921;-83
2023/12/11 18:33:18;;;;;;;;;;;10.20;1.00;;;;;;4994043;28;19960;-83
2023/12/11 18:42:17;;;;;;;;;;;10.30;1.00;;;;;;4994352;28;19917;-82
2023/12/11 18:44:46;;;;;;;;;;;;;;;;;;4993430;28;20000;-79
2023/12/11 18:47:12;;;;;;;;;;;10.30;1.00;;;;;;4997809;28;19914;-79
2023/12/11 18:49:52;;;;;;;;;;;10.30;1.00;;;;;;4993772;28;20400;-78
2023/12/11 18:52:28;;;;;;;;;;;10.30;1.00;;;;;;4993463;28;19910;-78
2023/12/11 18:55:04;;;;;;;;;;;10.30;1.00;;;;;;4985939;28;19979;-75
2023/12/11 18:57:30;;;;;;;;;;;10.30;1.00;;;;;;4996908;28;19914;-77
2023/12/11 19:02:59;;;;;;;;;;;;;;;;;;4993251;28;20407;-77
2023/12/11 19:08:27;;;;;;;;;;;10.40;1.00;;;;;;5006502;28;19951;-83
2023/12/11 19:13:56;;;;;;;;;;;10.30;1.00;;;;;;4996104;28;20472;-75
2023/12/11 19:16:22;;;;;;;;;;;10.30;1.00;;;;;;5000528;28;19914;-76
2023/12/11 19:19:10;;;;;;;;;;;10.30;1.00;;;;;;4996250;28;19972;-75
2023/12/11 19:21:35;;;;;;;;;;;10.40;1.00;;;;;;4987881;28;19928;-75